sensor_id;sensor_type;location;lat;lon;timestamp;pressure;altitude;pressure_sealevel;temperature;humidity
63343;BME280;49465;57.664;39.686;2024-02-21T00:00:26;101393.03;;;-3.29;42.19
63343;BME280;49465;57.664;39.686;2024-02-21T00:02:58;101391.28;;;-3.31;42.06
63343;BME280;49465;57.664;39.686;2024-02-21T00:05:31;101386.97;;;-3.34;41.83
63343;BME280;49465;57.664;39.686;2024-02-21T00:07:59;101385.28;;;-3.35;42.34
63343;BME280;49465;57.664;39.686;2024-02-21T00:10:33;101384.38;;;-3.39;42.28
63343;BME280;49465;57.664;39.686;2024-02-21T00:13:04;101378.34;;;-3.42;41.88
63343;BME280;49465;57.664;39.686;2024-02-21T00:15:45;101386.88;;;-3.43;42.19
63343;BME280;49465;57.664;39.686;2024-02-21T00:18:15;101381.75;;;-3.45;42.19
63343;BME280;49465;57.664;39.686;2024-02-21T00:20:47;101376.56;;;-3.49;41.99
63343;BME280;49465;57.664;39.686;2024-02-21T00:23:19;101372.25;;;-3.52;42.42
63343;BME280;49465;57.664;39.686;2024-02-21T00:25:51;101367.97;;;-3.54;42.56
63343;BME280;49465;57.664;39.686;2024-02-21T00:28:20;101363.66;;;-3.57;42.49
63343;BME280;49465;57.664;39.686;2024-02-21T00:31:10;101366.22;;;-3.59;41.95
63343;BME280;49465;57.664;39.686;2024-02-21T00:33:45;101361.03;;;-3.62;42.31
63343;BME280;49465;57.664;39.686;2024-02-21T00:36:14;101362.75;;;-3.62;42.19
63343;BME280;49465;57.664;39.686;2024-02-21T00:38:52;101353.31;;;-3.65;42.69
63343;BME280;49465;57.664;39.686;2024-02-21T00:41:24;101351.59;;;-3.67;43.09
63343;BME280;49465;57.664;39.686;2024-02-21T00:43:52;101348.19;;;-3.66;42.26
63343;BME280;49465;57.664;39.686;2024-02-21T00:46:22;101340.47;;;-3.68;42.79
63343;BME280;49465;57.664;39.686;2024-02-21T00:48:55;101341.31;;;-3.69;42.71
63343;BME280;49465;57.664;39.686;2024-02-21T00:51:21;101330.19;;;-3.71;42.60
63343;BME280;49465;57.664;39.686;2024-02-21T00:53:51;101333.59;;;-3.72;42.80
63343;BME280;49465;57.664;39.686;2024-02-21T00:56:25;101331.88;;;-3.71;42.62
63343;BME280;49465;57.664;39.686;2024-02-21T00:58:58;101328.44;;;-3.73;42.17
63343;BME280;49465;57.664;39.686;2024-02-21T01:01:31;101327.59;;;-3.72;42.58
63343;BME280;49465;57.664;39.686;2024-02-21T01:04:05;101318.16;;;-3.75;42.79
63343;BME280;49465;57.664;39.686;2024-02-21T01:06:48;101320.72;;;-3.77;42.84
63343;BME280;49465;57.664;39.686;2024-02-21T01:09:14;101318.16;;;-3.78;42.68
63343;BME280;49465;57.664;39.686;2024-02-21T01:11:52;101313.00;;;-3.80;42.71
63343;BME280;49465;57.664;39.686;2024-02-21T01:14:24;101310.41;;;-3.81;43.06
63343;BME280;49465;57.664;39.686;2024-02-21T01:16:53;101304.47;;;-3.79;42.93
63343;BME280;49465;57.664;39.686;2024-02-21T01:19:28;101293.34;;;-3.82;43.41
63343;BME280;49465;57.664;39.686;2024-02-21T01:22:02;101298.47;;;-3.81;43.34
63343;BME280;49465;57.664;39.686;2024-02-21T01:24:36;101306.16;;;-3.82;43.39
63343;BME280;49465;57.664;39.686;2024-02-21T01:27:04;101304.31;;;-3.92;43.86
63343;BME280;49465;57.664;39.686;2024-02-21T01:29:34;101302.69;;;-3.86;44.07
63343;BME280;49465;57.664;39.686;2024-02-21T01:32:05;101301.84;;;-3.83;43.59
63343;BME280;49465;57.664;39.686;2024-02-21T01:34:34;101307.00;;;-3.82;43.44
63343;BME280;49465;57.664;39.686;2024-02-21T01:37:07;101298.47;;;-3.82;43.65
63343;BME280;49465;57.664;39.686;2024-02-21T01:39:33;101296.72;;;-3.85;43.56
63343;BME280;49465;57.664;39.686;2024-02-21T01:42:05;101295.03;;;-3.83;43.44
63343;BME280;49465;57.664;39.686;2024-02-21T01:44:35;101295.91;;;-3.82;43.13
63343;BME280;49465;57.664;39.686;2024-02-21T01:47:04;101286.47;;;-3.83;43.09
63343;BME280;49465;57.664;39.686;2024-02-21T01:49:31;101289.06;;;-3.82;43.18
63343;BME280;49465;57.664;39.686;2024-02-21T01:51:57;101285.66;;;-3.82;42.86
63343;BME280;49465;57.664;39.686;2024-02-21T01:54:30;101282.19;;;-3.86;43.70
63343;BME280;49465;57.664;39.686;2024-02-21T01:57:02;101286.47;;;-3.85;43.51
63343;BME280;49465;57.664;39.686;2024-02-21T01:59:32;101278.75;;;-3.86;43.79
63343;BME280;49465;57.664;39.686;2024-02-21T02:02:02;101283.00;;;-3.88;43.42
63343;BME280;49465;57.664;39.686;2024-02-21T02:04:35;101279.59;;;-3.87;43.62
63343;BME280;49465;57.664;39.686;2024-02-21T02:07:03;101280.47;;;-3.87;43.61
63343;BME280;49465;57.664;39.686;2024-02-21T02:09:34;101276.16;;;-3.89;43.50
63343;BME280;49465;57.664;39.686;2024-02-21T02:12:05;101280.41;;;-3.91;44.03
63343;BME280;49465;57.664;39.686;2024-02-21T02:14:34;101276.16;;;-3.91;43.61
63343;BME280;49465;57.664;39.686;2024-02-21T02:17:08;101279.53;;;-3.93;43.68
63343;BME280;49465;57.664;39.686;2024-02-21T02:19:38;101277.00;;;-3.92;43.46
63343;BME280;49465;57.664;39.686;2024-02-21T02:22:18;101275.28;;;-3.91;43.63
63343;BME280;49465;57.664;39.686;2024-02-21T02:24:52;101278.72;;;-3.91;42.92
63343;BME280;49465;57.664;39.686;2024-02-21T02:27:21;101285.53;;;-3.91;42.49
63343;BME280;49465;57.664;39.686;2024-02-21T02:29:54;101284.69;;;-3.90;42.92
63343;BME280;49465;57.664;39.686;2024-02-21T02:32:21;101275.28;;;-3.91;42.33
63343;BME280;49465;57.664;39.686;2024-02-21T02:34:52;101275.28;;;-3.91;42.72
63343;BME280;49465;57.664;39.686;2024-02-21T02:37:23;101273.59;;;-3.91;42.47
63343;BME280;49465;57.664;39.686;2024-02-21T02:39:55;101274.44;;;-3.92;42.54
63343;BME280;49465;57.664;39.686;2024-02-21T02:42:24;101283.81;;;-3.92;42.32
63343;BME280;49465;57.664;39.686;2024-02-21T02:44:56;101273.56;;;-3.92;42.31
63343;BME280;49465;57.664;39.686;2024-02-21T02:47:26;101272.69;;;-3.94;42.25
63343;BME280;49465;57.664;39.686;2024-02-21T02:49:58;101281.25;;;-3.94;42.21
63343;BME280;49465;57.664;39.686;2024-02-21T02:52:30;101276.97;;;-3.95;42.15
63343;BME280;49465;57.664;39.686;2024-02-21T02:54:59;101276.97;;;-3.95;42.29
63343;BME280;49465;57.664;39.686;2024-02-21T02:57:28;101270.13;;;-3.94;42.38
63343;BME280;49465;57.664;39.686;2024-02-21T02:59:57;101271.81;;;-3.97;42.56
63343;BME280;49465;57.664;39.686;2024-02-21T03:02:31;101263.28;;;-3.95;42.58
63343;BME280;49465;57.664;39.686;2024-02-21T03:05:01;101275.22;;;-3.96;42.48
63343;BME280;49465;57.664;39.686;2024-02-21T03:07:38;101265.81;;;-3.99;42.53
63343;BME280;49465;57.664;39.686;2024-02-21T03:10:08;101258.94;;;-4.03;42.26
63343;BME280;49465;57.664;39.686;2024-02-21T03:12:37;101256.38;;;-4.03;42.73
63343;BME280;49465;57.664;39.686;2024-02-21T03:15:05;101270.88;;;-4.05;42.67
63343;BME280;49465;57.664;39.686;2024-02-21T03:17:36;101267.41;;;-4.08;42.93
63343;BME280;49465;57.664;39.686;2024-02-21T03:20:09;101267.41;;;-4.11;42.61
63343;BME280;49465;57.664;39.686;2024-02-21T03:22:39;101261.41;;;-4.10;42.95
63343;BME280;49465;57.664;39.686;2024-02-21T03:25:11;101261.38;;;-4.12;42.87
63343;BME280;49465;57.664;39.686;2024-02-21T03:27:43;101263.09;;;-4.12;42.88
63343;BME280;49465;57.664;39.686;2024-02-21T03:30:17;101258.84;;;-4.13;43.10
63343;BME280;49465;57.664;39.686;2024-02-21T03:32:46;101264.75;;;-4.16;42.72
63343;BME280;49465;57.664;39.686;2024-02-21T03:35:18;101258.75;;;-4.18;43.00
63343;BME280;49465;57.664;39.686;2024-02-21T03:37:50;101264.75;;;-4.19;43.03
63343;BME280;49465;57.664;39.686;2024-02-21T03:40:19;101263.81;;;-5.43;45.48
63343;BME280;49465;57.664;39.686;2024-02-21T03:42:52;101259.25;;;-4.48;43.69
63343;BME280;49465;57.664;39.686;2024-02-21T03:45:21;101257.75;;;-4.32;43.46
63343;BME280;49465;57.664;39.686;2024-02-21T03:47:55;101257.75;;;-4.29;43.52
63343;BME280;49465;57.664;39.686;2024-02-21T03:50:25;101257.81;;;-4.26;43.57
63343;BME280;49465;57.664;39.686;2024-02-21T03:52:56;101254.38;;;-4.28;43.70
63343;BME280;49465;57.664;39.686;2024-02-21T03:55:25;101253.53;;;-4.29;43.38
63343;BME280;49465;57.664;39.686;2024-02-21T03:57:57;101252.66;;;-4.29;43.60
63343;BME280;49465;57.664;39.686;2024-02-21T04:00:26;101256.06;;;-4.30;43.33
63343;BME280;49465;57.664;39.686;2024-02-21T04:02:53;101260.34;;;-4.31;43.68
63343;BME280;49465;57.664;39.686;2024-02-21T04:05:30;101256.91;;;-4.33;43.46
63343;BME280;49465;57.664;39.686;2024-02-21T04:07:59;101255.13;;;-4.35;44.09
63343;BME280;49465;57.664;39.686;2024-02-21T04:10:36;101257.69;;;-4.35;43.97
63343;BME280;49465;57.664;39.686;2024-02-21T04:13:06;101262.81;;;-4.37;43.66
63343;BME280;49465;57.664;39.686;2024-02-21T04:15:36;101264.50;;;-4.38;43.67
63343;BME280;49465;57.664;39.686;2024-02-21T04:18:05;101264.50;;;-4.38;43.89
63343;BME280;49465;57.664;39.686;2024-02-21T04:20:35;101261.97;;;-4.36;43.31
63343;BME280;49465;57.664;39.686;2024-02-21T04:23:04;101268.78;;;-4.37;43.13
63343;BME280;49465;57.664;39.686;2024-02-21T04:25:34;101268.78;;;-4.37;42.95
63343;BME280;49465;57.664;39.686;2024-02-21T04:28:03;101269.63;;;-4.38;43.04
63343;BME280;49465;57.664;39.686;2024-02-21T04:30:34;101272.22;;;-4.36;42.89
63343;BME280;49465;57.664;39.686;2024-02-21T04:33:03;101279.88;;;-4.38;42.73
63343;BME280;49465;57.664;39.686;2024-02-21T04:35:33;101273.88;;;-4.38;42.60
63343;BME280;49465;57.664;39.686;2024-02-21T04:38:02;101271.31;;;-4.40;42.91
63343;BME280;49465;57.664;39.686;2024-02-21T04:40:36;101271.28;;;-4.41;42.48
63343;BME280;49465;57.664;39.686;2024-02-21T04:43:04;101274.69;;;-4.42;42.35
63343;BME280;49465;57.664;39.686;2024-02-21T04:45:31;101274.72;;;-4.41;42.70
63343;BME280;49465;57.664;39.686;2024-02-21T04:48:02;101273.00;;;-4.40;42.17
63343;BME280;49465;57.664;39.686;2024-02-21T04:50:31;101271.34;;;-4.38;42.41
63343;BME280;49465;57.664;39.686;2024-02-21T04:53:00;101270.47;;;-4.39;42.45
63343;BME280;49465;57.664;39.686;2024-02-21T04:55:29;101273.00;;;-4.40;42.67
63343;BME280;49465;57.664;39.686;2024-02-21T04:58:01;101268.75;;;-4.40;42.36
63343;BME280;49465;57.664;39.686;2024-02-21T05:00:33;101265.31;;;-4.42;42.26
63343;BME280;49465;57.664;39.686;2024-02-21T05:03:02;101273.81;;;-4.44;42.66
63343;BME280;49465;57.664;39.686;2024-02-21T05:05:42;101266.97;;;-4.47;42.55
63343;BME280;49465;57.664;39.686;2024-02-21T05:08:12;101262.72;;;-4.45;42.37
63343;BME280;49465;57.664;39.686;2024-02-21T05:10:47;101269.56;;;-4.42;42.35
63343;BME280;49465;57.664;39.686;2024-02-21T05:13:20;101265.28;;;-4.45;42.20
63343;BME280;49465;57.664;39.686;2024-02-21T05:15:49;101269.56;;;-4.44;42.39
63343;BME280;49465;57.664;39.686;2024-02-21T05:18:16;101267.84;;;-4.45;42.30
63343;BME280;49465;57.664;39.686;2024-02-21T05:20:42;101274.59;;;-4.50;42.27
63343;BME280;49465;57.664;39.686;2024-02-21T05:23:15;101274.59;;;-4.50;42.38
63343;BME280;49465;57.664;39.686;2024-02-21T05:25:49;101273.75;;;-4.49;42.07
63343;BME280;49465;57.664;39.686;2024-02-21T05:28:25;101280.56;;;-4.49;42.37
63343;BME280;49465;57.664;39.686;2024-02-21T05:31:05;101280.56;;;-4.49;42.33
63343;BME280;49465;57.664;39.686;2024-02-21T05:33:37;101284.84;;;-4.50;42.58
63343;BME280;49465;57.664;39.686;2024-02-21T05:36:11;101277.97;;;-4.51;42.35
63343;BME280;49465;57.664;39.686;2024-02-21T05:38:42;101282.25;;;-4.51;42.94
63343;BME280;49465;57.664;39.686;2024-02-21T05:41:09;101277.91;;;-4.57;43.63
63343;BME280;49465;57.664;39.686;2024-02-21T05:43:41;101284.78;;;-4.53;43.48
63343;BME280;49465;57.664;39.686;2024-02-21T05:46:12;101283.09;;;-4.52;43.88
63343;BME280;49465;57.664;39.686;2024-02-21T05:48:47;101280.53;;;-4.52;43.56
63343;BME280;49465;57.664;39.686;2024-02-21T05:51:19;101279.78;;;-4.47;44.36
63343;BME280;49465;57.664;39.686;2024-02-21T05:53:52;101279.78;;;-4.44;44.47
63343;BME280;49465;57.664;39.686;2024-02-21T05:56:24;101282.31;;;-4.45;44.86
63343;BME280;49465;57.664;39.686;2024-02-21T05:58:55;101284.97;;;-4.41;45.13
63343;BME280;49465;57.664;39.686;2024-02-21T06:01:22;101279.06;;;-4.35;45.14
63343;BME280;49465;57.664;39.686;2024-02-21T06:03:54;101285.91;;;-4.32;44.82
63343;BME280;49465;57.664;39.686;2024-02-21T06:06:26;101280.81;;;-4.29;45.18
63343;BME280;49465;57.664;39.686;2024-02-21T06:08:56;101288.50;;;-4.29;46.72
63343;BME280;49465;57.664;39.686;2024-02-21T06:11:30;101291.16;;;-4.23;46.27
63343;BME280;49465;57.664;39.686;2024-02-21T06:14:08;101288.56;;;-4.26;45.72
63343;BME280;49465;57.664;39.686;2024-02-21T06:16:38;101295.50;;;-4.16;46.04
63343;BME280;49465;57.664;39.686;2024-02-21T06:19:16;101289.56;;;-4.12;45.46
63343;BME280;49465;57.664;39.686;2024-02-21T06:21:51;101286.19;;;-4.09;46.57
63343;BME280;49465;57.664;39.686;2024-02-21T06:24:25;101295.69;;;-4.01;45.54
63343;BME280;49465;57.664;39.686;2024-02-21T06:27:03;101288.91;;;-3.95;44.85
63343;BME280;49465;57.664;39.686;2024-02-21T06:29:29;101296.66;;;-3.89;44.95
63343;BME280;49465;57.664;39.686;2024-02-21T06:32:01;101292.44;;;-3.86;46.24
63343;BME280;49465;57.664;39.686;2024-02-21T06:34:39;101298.47;;;-3.82;46.80
63343;BME280;49465;57.664;39.686;2024-02-21T06:37:08;101290.78;;;-3.79;46.24
63343;BME280;49465;57.664;39.686;2024-02-21T06:39:42;101289.09;;;-3.77;46.71
63343;BME280;49465;57.664;39.686;2024-02-21T06:42:14;101281.44;;;-3.72;45.55
63343;BME280;49465;57.664;39.686;2024-02-21T06:44:44;101283.22;;;-3.67;45.11
63343;BME280;49465;57.664;39.686;2024-02-21T06:47:17;101287.53;;;-3.63;44.92
63343;BME280;49465;57.664;39.686;2024-02-21T06:49:49;101296.16;;;-3.56;45.92
63343;BME280;49465;57.664;39.686;2024-02-21T06:52:22;101292.75;;;-3.53;46.16
63343;BME280;49465;57.664;39.686;2024-02-21T06:54:51;101287.72;;;-4.86;47.64
63343;BME280;49465;57.664;39.686;2024-02-21T06:57:22;101296.72;;;-3.85;47.47
63343;BME280;49465;57.664;39.686;2024-02-21T06:59:57;101296.09;;;-3.64;47.02
63343;BME280;49465;57.664;39.686;2024-02-21T07:02:29;101296.19;;;-3.54;46.19
63343;BME280;49465;57.664;39.686;2024-02-21T07:05:03;101297.09;;;-3.48;46.15
63343;BME280;49465;57.664;39.686;2024-02-21T07:07:35;101293.75;;;-3.38;44.81
63343;BME280;49465;57.664;39.686;2024-02-21T07:10:11;101300.59;;;-3.38;46.01
63343;BME280;49465;57.664;39.686;2024-02-21T07:12:43;101291.25;;;-3.33;45.23
63343;BME280;49465;57.664;39.686;2024-02-21T07:15:14;101297.25;;;-3.29;46.03
63343;BME280;49465;57.664;39.686;2024-02-21T07:17:46;101291.31;;;-3.25;45.75
63343;BME280;49465;57.664;39.686;2024-02-21T07:20:20;101296.47;;;-3.18;46.09
63343;BME280;49465;57.664;39.686;2024-02-21T07:22:51;101299.09;;;-3.13;46.76
63343;BME280;49465;57.664;39.686;2024-02-21T07:25:39;101295.69;;;-3.10;45.55
63343;BME280;49465;57.664;39.686;2024-02-21T07:28:11;101303.44;;;-3.07;46.21
63343;BME280;49465;57.664;39.686;2024-02-21T07:30:43;101302.63;;;-3.02;46.24
63343;BME280;49465;57.664;39.686;2024-02-21T07:33:17;101303.50;;;-3.00;46.83
63343;BME280;49465;57.664;39.686;2024-02-21T07:35:54;101306.06;;;-2.95;47.08
63343;BME280;49465;57.664;39.686;2024-02-21T07:38:26;101299.25;;;-2.91;47.17
63343;BME280;49465;57.664;39.686;2024-02-21T07:40:57;101305.28;;;-2.85;47.44
63343;BME280;49465;57.664;39.686;2024-02-21T07:43:33;101303.63;;;-2.80;47.21
63343;BME280;49465;57.664;39.686;2024-02-21T07:46:04;101300.25;;;-2.72;47.74
63343;BME280;49465;57.664;39.686;2024-02-21T07:48:42;101302.00;;;-2.68;47.36
63343;BME280;49465;57.664;39.686;2024-02-21T07:51:14;101308.00;;;-2.62;47.64
63343;BME280;49465;57.664;39.686;2024-02-21T07:53:51;101307.19;;;-2.53;47.99
63343;BME280;49465;57.664;39.686;2024-02-21T07:56:30;101308.09;;;-2.46;47.40
63343;BME280;49465;57.664;39.686;2024-02-21T07:59:02;101303.00;;;-2.39;46.01
63343;BME280;49465;57.664;39.686;2024-02-21T08:01:35;101303.88;;;-2.36;48.33
63343;BME280;49465;57.664;39.686;2024-02-21T08:04:10;101311.59;;;-2.33;47.01
63343;BME280;49465;57.664;39.686;2024-02-21T08:06:41;101302.16;;;-2.31;49.20
63343;BME280;49465;57.664;39.686;2024-02-21T08:09:26;101305.66;;;-2.19;46.74
63343;BME280;49465;57.664;39.686;2024-02-21T08:11:53;101302.25;;;-2.16;47.73
63343;BME280;49465;57.664;39.686;2024-02-21T08:14:20;101306.56;;;-2.09;47.74
63343;BME280;49465;57.664;39.686;2024-02-21T08:16:50;101304.84;;;-2.08;48.89
63343;BME280;49465;57.664;39.686;2024-02-21T08:19:21;101307.44;;;-2.04;48.30
63343;BME280;49465;57.664;39.686;2024-02-21T08:22:02;101306.59;;;-2.06;48.39
63343;BME280;49465;57.664;39.686;2024-02-21T08:24:37;101298.88;;;-2.01;47.90
63343;BME280;49465;57.664;39.686;2024-02-21T08:27:14;101305.75;;;-1.95;48.88
63343;BME280;49465;57.664;39.686;2024-02-21T08:29:52;101301.47;;;-1.93;48.57
63343;BME280;49465;57.664;39.686;2024-02-21T08:32:30;101298.06;;;-1.86;47.73
63343;BME280;49465;57.664;39.686;2024-02-21T08:35:04;101310.09;;;-1.82;48.28
63343;BME280;49465;57.664;39.686;2024-02-21T08:37:41;101296.38;;;-1.73;47.85
63343;BME280;49465;57.664;39.686;2024-02-21T08:40:13;101298.97;;;-1.73;48.19
63343;BME280;49465;57.664;39.686;2024-02-21T08:42:47;101299.00;;;-1.64;47.63
63343;BME280;49465;57.664;39.686;2024-02-21T08:45:22;101298.09;;;-1.65;48.32
63343;BME280;49465;57.664;39.686;2024-02-21T08:47:56;101266.38;;;-1.79;47.89
63343;BME280;49465;57.664;39.686;2024-02-21T08:50:33;101293.00;;;-1.51;48.12
63343;BME280;49465;57.664;39.686;2024-02-21T08:53:10;101297.31;;;-1.42;47.42
63343;BME280;49465;57.664;39.686;2024-02-21T08:55:48;101296.44;;;-1.40;47.40
63343;BME280;49465;57.664;39.686;2024-02-21T08:58:32;101294.44;;;-2.38;49.21
63343;BME280;49465;57.664;39.686;2024-02-21T09:01:19;101304.13;;;-1.53;48.17
63343;BME280;49465;57.664;39.686;2024-02-21T09:03:47;101295.59;;;-1.40;48.69
63343;BME280;49465;57.664;39.686;2024-02-21T09:06:22;101299.03;;;-1.29;48.02
63343;BME280;49465;57.664;39.686;2024-02-21T09:09:02;101300.72;;;-1.46;48.63
63343;BME280;49465;57.664;39.686;2024-02-21T09:11:37;101304.19;;;-1.20;47.74
63343;BME280;49465;57.664;39.686;2024-02-21T09:14:23;101304.16;;;-1.33;48.86
63343;BME280;49465;57.664;39.686;2024-02-21T09:17:05;101306.75;;;-1.07;47.48
63343;BME280;49465;57.664;39.686;2024-02-21T09:19:50;101314.25;;;-2.12;49.37
63343;BME280;49465;57.664;39.686;2024-02-21T09:22:24;101308.47;;;-1.26;49.51
63343;BME280;49465;57.664;39.686;2024-02-21T09:24:54;101299.03;;;-1.16;48.16
63343;BME280;49465;57.664;39.686;2024-02-21T09:27:28;101296.47;;;-1.15;48.63
63343;BME280;49465;57.664;39.686;2024-02-21T09:30:06;101302.47;;;-0.96;48.58
63343;BME280;49465;57.664;39.686;2024-02-21T09:32:50;101297.31;;;-0.90;48.13
63343;BME280;49465;57.664;39.686;2024-02-21T09:35:25;101299.84;;;-0.71;47.75
63343;BME280;49465;57.664;39.686;2024-02-21T09:38:05;101295.56;;;-0.72;47.32
63343;BME280;49465;57.664;39.686;2024-02-21T09:40:39;101296.41;;;-0.58;47.15
63343;BME280;49465;57.664;39.686;2024-02-21T09:43:15;101296.41;;;-1.60;49.49
63343;BME280;49465;57.664;39.686;2024-02-21T09:45:50;101293.81;;;-0.69;47.50
63343;BME280;49465;57.664;39.686;2024-02-21T09:51:16;101289.53;;;-0.61;47.92
63343;BME280;49465;57.664;39.686;2024-02-21T09:53:51;101293.00;;;-1.42;49.58
63343;BME280;49465;57.664;39.686;2024-02-21T09:56:25;101286.06;;;-0.43;46.98
63343;BME280;49465;57.664;39.686;2024-02-21T09:59:06;101282.63;;;-0.43;47.45
63343;BME280;49465;57.664;39.686;2024-02-21T10:01:36;101275.88;;;-1.29;48.87
63343;BME280;49465;57.664;39.686;2024-02-21T10:04:14;101278.25;;;-0.32;47.61
63343;BME280;49465;57.664;39.686;2024-02-21T10:06:47;101272.22;;;-0.25;47.38
63343;BME280;49465;57.664;39.686;2024-02-21T10:09:43;101275.63;;;-0.16;47.29
63343;BME280;49465;57.664;39.686;2024-02-21T10:12:17;101276.38;;;0.06;47.16
63343;BME280;49465;57.664;39.686;2024-02-21T10:14:48;101270.28;;;0.19;46.58
63343;BME280;49465;57.664;39.686;2024-02-21T10:17:28;101277.13;;;0.25;46.67
63343;BME280;49465;57.664;39.686;2024-02-21T10:20:02;101275.44;;;0.17;46.72
63343;BME280;49465;57.664;39.686;2024-02-21T10:22:47;101277.94;;;0.31;46.07
63343;BME280;49465;57.664;39.686;2024-02-21T10:25:17;101272.75;;;0.41;46.11
63343;BME280;49465;57.664;39.686;2024-02-21T10:27:52;101269.41;;;0.22;46.55
63343;BME280;49465;57.664;39.686;2024-02-21T10:30:38;101274.13;;;-0.74;48.53
63343;BME280;49465;57.664;39.686;2024-02-21T10:33:21;101269.81;;;-0.75;49.14
63343;BME280;49465;57.664;39.686;2024-02-21T10:35:53;101266.41;;;-0.93;48.71
63343;BME280;49465;57.664;39.686;2024-02-21T10:38:26;101266.38;;;-0.74;48.77
63343;BME280;49465;57.664;39.686;2024-02-21T10:41:09;101265.97;;;0.21;47.23
63343;BME280;49465;57.664;39.686;2024-02-21T10:43:50;101265.78;;;0.53;46.42
63343;BME280;49465;57.664;39.686;2024-02-21T10:46:28;101267.16;;;-0.43;48.07
63343;BME280;49465;57.664;39.686;2024-02-21T10:49:27;101267.63;;;0.31;47.09
63343;BME280;49465;57.664;39.686;2024-02-21T10:55:13;101261.38;;;0.66;46.68
63343;BME280;49465;57.664;39.686;2024-02-21T10:57:48;101259.44;;;-0.45;47.48
63343;BME280;49465;57.664;39.686;2024-02-21T11:00:19;101263.03;;;0.70;46.66
63343;BME280;49465;57.664;39.686;2024-02-21T11:03:02;101257.69;;;0.92;46.27
63343;BME280;49465;57.664;39.686;2024-02-21T11:05:41;101264.50;;;-0.26;47.34
63343;BME280;49465;57.664;39.686;2024-02-21T11:08:24;101263.63;;;-0.24;48.05
63343;BME280;49465;57.664;39.686;2024-02-21T11:11:00;101259.50;;;0.82;46.38
63343;BME280;49465;57.664;39.686;2024-02-21T11:13:38;101266.34;;;0.88;45.90
63343;BME280;49465;57.664;39.686;2024-02-21T11:16:23;101254.91;;;1.16;45.80
63343;BME280;49465;57.664;39.686;2024-02-21T11:21:51;101254.00;;;0.08;48.14
63343;BME280;49465;57.664;39.686;2024-02-21T11:24:35;101248.94;;;1.10;46.39
63343;BME280;49465;57.664;39.686;2024-02-21T11:27:25;101249.31;;;0.68;47.18
63343;BME280;49465;57.664;39.686;2024-02-21T11:30:05;101247.97;;;0.13;47.76
63343;BME280;49465;57.664;39.686;2024-02-21T11:32:38;101244.66;;;-0.07;47.92
63343;BME280;49465;57.664;39.686;2024-02-21T11:35:07;101249.81;;;-0.06;48.17
63343;BME280;49465;57.664;39.686;2024-02-21T11:37:47;101250.59;;;0.09;48.38
63343;BME280;49465;57.664;39.686;2024-02-21T11:40:19;101240.31;;;-0.01;47.99
63343;BME280;49465;57.664;39.686;2024-02-21T11:42:58;101246.28;;;0.09;47.98
63343;BME280;49465;57.664;39.686;2024-02-21T11:45:33;101237.63;;;1.22;46.16
63343;BME280;49465;57.664;39.686;2024-02-21T11:48:13;101234.81;;;0.53;47.39
63343;BME280;49465;57.664;39.686;2024-02-21T11:50:54;101240.81;;;0.52;47.74
63343;BME280;49465;57.664;39.686;2024-02-21T11:53:34;101231.44;;;0.41;48.13
63343;BME280;49465;57.664;39.686;2024-02-21T11:56:03;101227.38;;;0.07;47.75
63343;BME280;49465;57.664;39.686;2024-02-21T11:58:41;101228.06;;;0.35;48.42
63343;BME280;49465;57.664;39.686;2024-02-21T12:01:16;101228.97;;;0.27;47.78
63343;BME280;49465;57.664;39.686;2024-02-21T12:03:53;101235.81;;;0.34;47.55
63343;BME280;49465;57.664;39.686;2024-02-21T12:06:29;101229.66;;;0.49;48.07
63343;BME280;49465;57.664;39.686;2024-02-21T12:09:00;101231.44;;;0.41;47.47
63343;BME280;49465;57.664;39.686;2024-02-21T12:11:30;101233.97;;;0.48;47.27
63343;BME280;49465;57.664;39.686;2024-02-21T12:14:15;101225.22;;;0.65;46.81
63343;BME280;49465;57.664;39.686;2024-02-21T12:16:45;101225.28;;;0.62;47.02
63343;BME280;49465;57.664;39.686;2024-02-21T12:19:19;101230.44;;;0.63;46.97
63343;BME280;49465;57.664;39.686;2024-02-21T12:21:49;101223.59;;;0.59;46.66
63343;BME280;49465;57.664;39.686;2024-02-21T12:24:36;101231.88;;;0.95;46.58
63343;BME280;49465;57.664;39.686;2024-02-21T12:27:09;101224.72;;;1.91;44.55
63343;BME280;49465;57.664;39.686;2024-02-21T12:29:41;101231.75;;;1.06;45.98
63343;BME280;49465;57.664;39.686;2024-02-21T12:32:13;101235.22;;;1.03;46.04
63343;BME280;49465;57.664;39.686;2024-02-21T12:34:45;101239.53;;;1.01;46.18
63343;BME280;49465;57.664;39.686;2024-02-21T12:37:21;101231.47;;;2.02;44.04
63343;BME280;49465;57.664;39.686;2024-02-21T12:39:48;101230.06;;;1.02;45.83
63343;BME280;49465;57.664;39.686;2024-02-21T12:42:25;101236.97;;;0.98;45.88
63343;BME280;49465;57.664;39.686;2024-02-21T12:44:56;101226.84;;;0.78;46.21
63343;BME280;49465;57.664;39.686;2024-02-21T12:47:32;101225.03;;;0.89;46.22
63343;BME280;49465;57.664;39.686;2024-02-21T12:50:06;101234.41;;;0.98;46.06
63343;BME280;49465;57.664;39.686;2024-02-21T12:52:41;101226.53;;;1.12;46.35
63343;BME280;49465;57.664;39.686;2024-02-21T12:55:21;101229.19;;;1.04;46.26
63343;BME280;49465;57.664;39.686;2024-02-21T12:58:02;101229.97;;;1.11;46.21
63343;BME280;49465;57.664;39.686;2024-02-21T13:00:42;101227.47;;;1.02;46.21
63343;BME280;49465;57.664;39.686;2024-02-21T13:03:14;101225.81;;;0.97;46.18
63343;BME280;49465;57.664;39.686;2024-02-21T13:05:49;101228.28;;;1.08;45.94
63343;BME280;49465;57.664;39.686;2024-02-21T13:08:24;101224.06;;;0.98;45.81
63343;BME280;49465;57.664;39.686;2024-02-21T13:11:02;101220.47;;;1.13;45.66
63343;BME280;49465;57.664;39.686;2024-02-21T13:13:33;101224.97;;;0.95;45.46
63343;BME280;49465;57.664;39.686;2024-02-21T13:16:08;101225.63;;;1.14;45.76
63343;BME280;49465;57.664;39.686;2024-02-21T13:18:45;101231.81;;;0.98;45.34
63343;BME280;49465;57.664;39.686;2024-02-21T13:21:19;101224.94;;;0.98;45.65
63343;BME280;49465;57.664;39.686;2024-02-21T13:23:59;101226.63;;;1.04;45.40